sensor_id;sensor_type;location;lat;lon;timestamp;P1;durP1;ratioP1;P2;durP2;ratioP2
31482;SDS011;18103;52.246;8.052;2023-10-19T00:01:57;13.13;;;7.50;;
31482;SDS011;18103;52.246;8.052;2023-10-19T00:04:24;17.53;;;8.13;;
31482;SDS011;18103;52.246;8.052;2023-10-19T00:06:57;16.20;;;7.37;;
31482;SDS011;18103;52.246;8.052;2023-10-19T00:09:22;17.70;;;8.50;;
31482;SDS011;18103;52.246;8.052;2023-10-19T00:11:48;15.30;;;8.00;;
31482;SDS011;18103;52.246;8.052;2023-10-19T00:14:16;12.57;;;7.40;;
31482;SDS011;18103;52.246;8.052;2023-10-19T00:16:43;16.23;;;8.10;;
31482;SDS011;18103;52.246;8.052;2023-10-19T00:19:25;17.47;;;7.90;;
31482;SDS011;18103;52.246;8.052;2023-10-19T00:21:54;19.30;;;8.63;;
31482;SDS011;18103;52.246;8.052;2023-10-19T00:24:21;16.30;;;9.37;;
31482;SDS011;18103;52.246;8.052;2023-10-19T00:26:48;18.90;;;7.97;;
31482;SDS011;18103;52.246;8.052;2023-10-19T00:29:18;15.33;;;7.83;;
31482;SDS011;18103;52.246;8.052;2023-10-19T00:32:06;15.40;;;7.17;;
31482;SDS011;18103;52.246;8.052;2023-10-19T00:34:39;16.93;;;8.73;;
31482;SDS011;18103;52.246;8.052;2023-10-19T00:37:04;16.37;;;8.33;;
31482;SDS011;18103;52.246;8.052;2023-10-19T00:39:34;16.83;;;9.53;;
31482;SDS011;18103;52.246;8.052;2023-10-19T00:42:10;15.40;;;8.00;;
31482;SDS011;18103;52.246;8.052;2023-10-19T00:44:36;17.90;;;7.80;;
31482;SDS011;18103;52.246;8.052;2023-10-19T00:47:07;18.53;;;8.23;;
31482;SDS011;18103;52.246;8.052;2023-10-19T00:49:38;19.53;;;8.40;;
31482;SDS011;18103;52.246;8.052;2023-10-19T00:52:06;23.37;;;9.07;;
31482;SDS011;18103;52.246;8.052;2023-10-19T00:54:44;16.13;;;8.57;;
31482;SDS011;18103;52.246;8.052;2023-10-19T00:57:16;18.93;;;9.53;;
31482;SDS011;18103;52.246;8.052;2023-10-19T00:59:45;19.43;;;8.60;;
31482;SDS011;18103;52.246;8.052;2023-10-19T01:02:15;18.43;;;8.70;;
31482;SDS011;18103;52.246;8.052;2023-10-19T01:04:50;14.07;;;8.80;;
31482;SDS011;18103;52.246;8.052;2023-10-19T01:07:21;16.40;;;8.10;;
31482;SDS011;18103;52.246;8.052;2023-10-19T01:09:53;16.33;;;9.10;;
31482;SDS011;18103;52.246;8.052;2023-10-19T01:12:21;20.37;;;9.17;;
31482;SDS011;18103;52.246;8.052;2023-10-19T01:15:02;17.30;;;9.30;;
31482;SDS011;18103;52.246;8.052;2023-10-19T01:17:32;16.47;;;9.50;;
31482;SDS011;18103;52.246;8.052;2023-10-19T01:20:05;18.60;;;8.47;;
31482;SDS011;18103;52.246;8.052;2023-10-19T01:22:53;18.77;;;10.10;;
31482;SDS011;18103;52.246;8.052;2023-10-19T01:25:32;12.40;;;6.67;;
31482;SDS011;18103;52.246;8.052;2023-10-19T01:28:06;17.27;;;9.17;;
31482;SDS011;18103;52.246;8.052;2023-10-19T01:30:33;18.80;;;9.30;;
31482;SDS011;18103;52.246;8.052;2023-10-19T01:32:59;19.57;;;9.80;;
31482;SDS011;18103;52.246;8.052;2023-10-19T01:35:27;19.73;;;7.60;;
31482;SDS011;18103;52.246;8.052;2023-10-19T01:38:13;17.23;;;8.87;;
31482;SDS011;18103;52.246;8.052;2023-10-19T01:40:38;15.10;;;6.90;;
31482;SDS011;18103;52.246;8.052;2023-10-19T01:43:11;15.30;;;8.13;;
31482;SDS011;18103;52.246;8.052;2023-10-19T01:45:46;15.23;;;8.53;;
31482;SDS011;18103;52.246;8.052;2023-10-19T01:48:12;19.00;;;7.47;;
31482;SDS011;18103;52.246;8.052;2023-10-19T01:50:38;17.23;;;9.23;;
31482;SDS011;18103;52.246;8.052;2023-10-19T01:53:06;12.50;;;7.20;;
31482;SDS011;18103;52.246;8.052;2023-10-19T01:55:41;13.17;;;7.37;;
31482;SDS011;18103;52.246;8.052;2023-10-19T01:58:12;17.03;;;7.60;;
31482;SDS011;18103;52.246;8.052;2023-10-19T02:00:39;13.87;;;7.67;;
31482;SDS011;18103;52.246;8.052;2023-10-19T02:03:08;10.03;;;6.57;;
31482;SDS011;18103;52.246;8.052;2023-10-19T02:05:41;10.23;;;6.67;;
31482;SDS011;18103;52.246;8.052;2023-10-19T02:08:07;11.83;;;5.63;;
31482;SDS011;18103;52.246;8.052;2023-10-19T02:10:36;10.33;;;5.57;;
31482;SDS011;18103;52.246;8.052;2023-10-19T02:13:07;10.47;;;5.63;;
31482;SDS011;18103;52.246;8.052;2023-10-19T02:15:36;9.27;;;5.70;;
31482;SDS011;18103;52.246;8.052;2023-10-19T02:18:03;8.40;;;5.17;;
31482;SDS011;18103;52.246;8.052;2023-10-19T02:20:29;9.47;;;5.90;;
31482;SDS011;18103;52.246;8.052;2023-10-19T02:22:56;9.63;;;5.67;;
31482;SDS011;18103;52.246;8.052;2023-10-19T02:25:22;8.83;;;6.10;;
31482;SDS011;18103;52.246;8.052;2023-10-19T02:27:50;10.13;;;5.93;;
31482;SDS011;18103;52.246;8.052;2023-10-19T02:30:17;9.73;;;5.33;;
31482;SDS011;18103;52.246;8.052;2023-10-19T02:32:45;10.67;;;5.33;;
31482;SDS011;18103;52.246;8.052;2023-10-19T02:35:12;8.83;;;4.87;;
31482;SDS011;18103;52.246;8.052;2023-10-19T02:37:40;8.50;;;5.57;;
31482;SDS011;18103;52.246;8.052;2023-10-19T02:40:08;8.30;;;4.80;;
31482;SDS011;18103;52.246;8.052;2023-10-19T02:42:54;8.00;;;5.33;;
31482;SDS011;18103;52.246;8.052;2023-10-19T02:45:19;10.10;;;5.10;;
31482;SDS011;18103;52.246;8.052;2023-10-19T02:47:48;9.53;;;4.93;;
31482;SDS011;18103;52.246;8.052;2023-10-19T02:50:15;7.73;;;5.30;;
31482;SDS011;18103;52.246;8.052;2023-10-19T02:52:42;9.00;;;5.03;;
31482;SDS011;18103;52.246;8.052;2023-10-19T02:55:11;9.80;;;5.20;;
31482;SDS011;18103;52.246;8.052;2023-10-19T02:57:41;8.07;;;4.33;;
31482;SDS011;18103;52.246;8.052;2023-10-19T03:00:07;10.73;;;5.37;;
31482;SDS011;18103;52.246;8.052;2023-10-19T03:02:36;9.23;;;4.60;;
31482;SDS011;18103;52.246;8.052;2023-10-19T03:05:06;9.77;;;5.27;;
31482;SDS011;18103;52.246;8.052;2023-10-19T03:07:42;9.33;;;5.47;;
31482;SDS011;18103;52.246;8.052;2023-10-19T03:10:11;8.13;;;4.67;;
31482;SDS011;18103;52.246;8.052;2023-10-19T03:12:50;8.37;;;4.70;;
31482;SDS011;18103;52.246;8.052;2023-10-19T03:15:16;8.30;;;5.23;;
31482;SDS011;18103;52.246;8.052;2023-10-19T03:17:45;7.77;;;4.87;;
31482;SDS011;18103;52.246;8.052;2023-10-19T03:20:16;9.90;;;5.63;;
31482;SDS011;18103;52.246;8.052;2023-10-19T03:22:49;7.97;;;4.60;;
31482;SDS011;18103;52.246;8.052;2023-10-19T03:25:14;8.37;;;5.30;;
31482;SDS011;18103;52.246;8.052;2023-10-19T03:27:59;8.83;;;4.93;;
31482;SDS011;18103;52.246;8.052;2023-10-19T03:30:33;7.03;;;4.43;;
31482;SDS011;18103;52.246;8.052;2023-10-19T03:33:07;8.50;;;4.83;;
31482;SDS011;18103;52.246;8.052;2023-10-19T03:35:37;7.23;;;4.50;;
31482;SDS011;18103;52.246;8.052;2023-10-19T03:38:06;8.73;;;5.27;;
31482;SDS011;18103;52.246;8.052;2023-10-19T03:40:41;8.80;;;4.87;;
31482;SDS011;18103;52.246;8.052;2023-10-19T03:43:10;12.70;;;5.60;;
31482;SDS011;18103;52.246;8.052;2023-10-19T03:45:47;9.23;;;5.03;;
31482;SDS011;18103;52.246;8.052;2023-10-19T03:48:20;10.13;;;5.40;;
31482;SDS011;18103;52.246;8.052;2023-10-19T03:50:59;8.27;;;4.97;;
31482;SDS011;18103;52.246;8.052;2023-10-19T03:53:27;8.50;;;5.20;;
31482;SDS011;18103;52.246;8.052;2023-10-19T03:55:52;7.53;;;4.83;;
31482;SDS011;18103;52.246;8.052;2023-10-19T03:58:19;8.23;;;5.27;;
31482;SDS011;18103;52.246;8.052;2023-10-19T04:00:46;12.57;;;5.47;;
31482;SDS011;18103;52.246;8.052;2023-10-19T04:03:17;10.23;;;5.93;;
31482;SDS011;18103;52.246;8.052;2023-10-19T04:05:49;9.33;;;5.40;;
31482;SDS011;18103;52.246;8.052;2023-10-19T04:08:16;9.40;;;5.53;;
31482;SDS011;18103;52.246;8.052;2023-10-19T04:10:46;7.63;;;5.13;;
31482;SDS011;18103;52.246;8.052;2023-10-19T04:13:31;10.53;;;5.83;;
31482;SDS011;18103;52.246;8.052;2023-10-19T04:15:56;10.03;;;5.50;;
31482;SDS011;18103;52.246;8.052;2023-10-19T04:18:22;10.17;;;6.27;;
31482;SDS011;18103;52.246;8.052;2023-10-19T04:20:50;9.10;;;5.87;;
31482;SDS011;18103;52.246;8.052;2023-10-19T04:23:16;11.13;;;5.73;;
31482;SDS011;18103;52.246;8.052;2023-10-19T04:25:45;8.53;;;5.50;;
31482;SDS011;18103;52.246;8.052;2023-10-19T04:28:16;8.57;;;5.43;;
31482;SDS011;18103;52.246;8.052;2023-10-19T04:30:50;9.97;;;5.47;;
31482;SDS011;18103;52.246;8.052;2023-10-19T04:33:17;11.37;;;5.63;;
31482;SDS011;18103;52.246;8.052;2023-10-19T04:35:43;10.57;;;6.87;;
31482;SDS011;18103;52.246;8.052;2023-10-19T04:38:16;9.87;;;5.80;;
31482;SDS011;18103;52.246;8.052;2023-10-19T04:40:45;8.80;;;5.37;;
31482;SDS011;18103;52.246;8.052;2023-10-19T04:43:13;11.83;;;6.27;;
31482;SDS011;18103;52.246;8.052;2023-10-19T04:45:41;10.50;;;6.00;;
31482;SDS011;18103;52.246;8.052;2023-10-19T04:48:07;10.60;;;5.03;;
31482;SDS011;18103;52.246;8.052;2023-10-19T04:50:32;14.57;;;6.33;;
31482;SDS011;18103;52.246;8.052;2023-10-19T04:52:58;9.23;;;5.90;;
31482;SDS011;18103;52.246;8.052;2023-10-19T04:55:25;12.97;;;5.90;;
31482;SDS011;18103;52.246;8.052;2023-10-19T04:57:52;14.73;;;5.83;;
31482;SDS011;18103;52.246;8.052;2023-10-19T05:00:18;11.40;;;6.13;;
31482;SDS011;18103;52.246;8.052;2023-10-19T05:02:46;8.67;;;5.70;;
31482;SDS011;18103;52.246;8.052;2023-10-19T05:05:11;10.27;;;6.37;;
31482;SDS011;18103;52.246;8.052;2023-10-19T05:07:42;11.30;;;6.93;;
31482;SDS011;18103;52.246;8.052;2023-10-19T05:10:07;9.53;;;6.03;;
31482;SDS011;18103;52.246;8.052;2023-10-19T05:12:33;11.67;;;6.40;;
31482;SDS011;18103;52.246;8.052;2023-10-19T05:14:58;12.60;;;6.83;;
31482;SDS011;18103;52.246;8.052;2023-10-19T05:17:26;9.87;;;6.27;;
31482;SDS011;18103;52.246;8.052;2023-10-19T05:19:52;9.17;;;6.10;;
31482;SDS011;18103;52.246;8.052;2023-10-19T05:22:19;9.63;;;6.17;;
31482;SDS011;18103;52.246;8.052;2023-10-19T05:24:48;11.60;;;6.37;;
31482;SDS011;18103;52.246;8.052;2023-10-19T05:27:16;11.70;;;6.23;;
31482;SDS011;18103;52.246;8.052;2023-10-19T05:29:42;10.77;;;5.60;;
31482;SDS011;18103;52.246;8.052;2023-10-19T05:32:10;10.67;;;5.63;;
31482;SDS011;18103;52.246;8.052;2023-10-19T05:34:36;11.57;;;6.40;;
31482;SDS011;18103;52.246;8.052;2023-10-19T05:37:04;10.73;;;6.07;;
31482;SDS011;18103;52.246;8.052;2023-10-19T05:39:30;9.83;;;5.70;;
31482;SDS011;18103;52.246;8.052;2023-10-19T05:41:58;11.17;;;6.50;;
31482;SDS011;18103;52.246;8.052;2023-10-19T05:44:27;10.57;;;5.83;;
31482;SDS011;18103;52.246;8.052;2023-10-19T05:46:53;11.03;;;6.57;;
31482;SDS011;18103;52.246;8.052;2023-10-19T05:49:20;15.10;;;6.83;;
31482;SDS011;18103;52.246;8.052;2023-10-19T05:51:49;12.00;;;6.20;;
31482;SDS011;18103;52.246;8.052;2023-10-19T05:54:14;11.57;;;6.67;;
31482;SDS011;18103;52.246;8.052;2023-10-19T05:56:40;14.00;;;6.47;;
31482;SDS011;18103;52.246;8.052;2023-10-19T05:59:07;10.13;;;6.10;;
31482;SDS011;18103;52.246;8.052;2023-10-19T06:01:36;10.73;;;6.00;;
31482;SDS011;18103;52.246;8.052;2023-10-19T06:04:02;11.80;;;6.27;;
31482;SDS011;18103;52.246;8.052;2023-10-19T06:06:30;11.53;;;6.33;;
31482;SDS011;18103;52.246;8.052;2023-10-19T06:08:55;9.53;;;6.10;;
31482;SDS011;18103;52.246;8.052;2023-10-19T06:11:22;9.97;;;5.80;;
31482;SDS011;18103;52.246;8.052;2023-10-19T06:13:47;10.43;;;6.30;;
31482;SDS011;18103;52.246;8.052;2023-10-19T06:16:13;12.40;;;6.07;;
31482;SDS011;18103;52.246;8.052;2023-10-19T06:18:40;8.27;;;5.10;;
31482;SDS011;18103;52.246;8.052;2023-10-19T06:21:08;9.37;;;5.53;;
31482;SDS011;18103;52.246;8.052;2023-10-19T06:23:37;10.60;;;6.30;;
31482;SDS011;18103;52.246;8.052;2023-10-19T06:26:08;9.27;;;5.30;;
31482;SDS011;18103;52.246;8.052;2023-10-19T06:28:39;8.30;;;5.67;;
31482;SDS011;18103;52.246;8.052;2023-10-19T06:31:05;8.10;;;5.37;;
31482;SDS011;18103;52.246;8.052;2023-10-19T06:33:33;9.37;;;5.87;;
31482;SDS011;18103;52.246;8.052;2023-10-19T06:35:59;8.90;;;5.40;;
31482;SDS011;18103;52.246;8.052;2023-10-19T06:38:25;10.43;;;5.83;;
31482;SDS011;18103;52.246;8.052;2023-10-19T06:40:51;8.83;;;5.73;;
31482;SDS011;18103;52.246;8.052;2023-10-19T06:43:16;8.67;;;5.53;;
31482;SDS011;18103;52.246;8.052;2023-10-19T06:45:46;12.60;;;5.80;;
31482;SDS011;18103;52.246;8.052;2023-10-19T06:48:11;11.20;;;6.07;;
31482;SDS011;18103;52.246;8.052;2023-10-19T06:50:37;14.90;;;6.30;;
31482;SDS011;18103;52.246;8.052;2023-10-19T06:53:04;8.17;;;5.63;;
31482;SDS011;18103;52.246;8.052;2023-10-19T06:55:32;7.50;;;5.13;;
31482;SDS011;18103;52.246;8.052;2023-10-19T06:57:58;7.90;;;5.47;;
31482;SDS011;18103;52.246;8.052;2023-10-19T07:00:24;10.03;;;6.13;;
31482;SDS011;18103;52.246;8.052;2023-10-19T07:02:56;8.53;;;5.83;;
31482;SDS011;18103;52.246;8.052;2023-10-19T07:05:25;12.37;;;6.77;;
31482;SDS011;18103;52.246;8.052;2023-10-19T07:07:55;9.83;;;5.90;;
31482;SDS011;18103;52.246;8.052;2023-10-19T07:10:25;10.37;;;6.90;;
31482;SDS011;18103;52.246;8.052;2023-10-19T07:12:54;10.23;;;6.03;;
31482;SDS011;18103;52.246;8.052;2023-10-19T07:15:23;8.77;;;5.53;;
31482;SDS011;18103;52.246;8.052;2023-10-19T07:17:52;11.33;;;6.33;;
31482;SDS011;18103;52.246;8.052;2023-10-19T07:20:20;11.07;;;7.10;;
31482;SDS011;18103;52.246;8.052;2023-10-19T07:22:57;11.40;;;5.93;;
31482;SDS011;18103;52.246;8.052;2023-10-19T07:25:30;7.73;;;5.40;;
31482;SDS011;18103;52.246;8.052;2023-10-19T07:27:56;12.87;;;5.63;;
31482;SDS011;18103;52.246;8.052;2023-10-19T07:30:24;8.87;;;5.83;;
31482;SDS011;18103;52.246;8.052;2023-10-19T07:32:53;13.13;;;6.20;;
31482;SDS011;18103;52.246;8.052;2023-10-19T07:35:25;11.37;;;7.07;;
31482;SDS011;18103;52.246;8.052;2023-10-19T07:37:55;11.83;;;6.70;;
31482;SDS011;18103;52.246;8.052;2023-10-19T07:40:21;8.97;;;5.70;;
31482;SDS011;18103;52.246;8.052;2023-10-19T07:42:49;10.13;;;5.90;;
31482;SDS011;18103;52.246;8.052;2023-10-19T07:45:19;8.87;;;6.03;;
31482;SDS011;18103;52.246;8.052;2023-10-19T07:47:44;8.80;;;5.67;;
31482;SDS011;18103;52.246;8.052;2023-10-19T07:50:13;11.20;;;6.53;;
31482;SDS011;18103;52.246;8.052;2023-10-19T07:52:48;10.00;;;6.27;;
31482;SDS011;18103;52.246;8.052;2023-10-19T07:55:21;10.30;;;6.03;;
31482;SDS011;18103;52.246;8.052;2023-10-19T07:57:52;9.23;;;5.57;;
31482;SDS011;18103;52.246;8.052;2023-10-19T08:00:19;11.73;;;6.43;;
31482;SDS011;18103;52.246;8.052;2023-10-19T08:02:45;13.13;;;6.70;;
31482;SDS011;18103;52.246;8.052;2023-10-19T08:05:12;11.17;;;6.50;;
31482;SDS011;18103;52.246;8.052;2023-10-19T08:07:43;10.57;;;5.87;;
31482;SDS011;18103;52.246;8.052;2023-10-19T08:10:09;9.27;;;6.13;;
31482;SDS011;18103;52.246;8.052;2023-10-19T08:12:37;10.27;;;5.60;;
31482;SDS011;18103;52.246;8.052;2023-10-19T08:15:09;12.07;;;5.47;;
31482;SDS011;18103;52.246;8.052;2023-10-19T08:17:39;11.80;;;6.03;;
31482;SDS011;18103;52.246;8.052;2023-10-19T08:20:08;12.57;;;6.27;;
31482;SDS011;18103;52.246;8.052;2023-10-19T08:22:43;8.90;;;5.57;;
31482;SDS011;18103;52.246;8.052;2023-10-19T08:25:11;9.50;;;6.00;;
31482;SDS011;18103;52.246;8.052;2023-10-19T08:27:42;9.50;;;6.17;;
31482;SDS011;18103;52.246;8.052;2023-10-19T08:30:15;12.37;;;6.10;;
31482;SDS011;18103;52.246;8.052;2023-10-19T08:32:45;14.83;;;6.60;;
31482;SDS011;18103;52.246;8.052;2023-10-19T08:35:16;9.83;;;6.13;;
31482;SDS011;18103;52.246;8.052;2023-10-19T08:37:49;9.13;;;5.70;;
31482;SDS011;18103;52.246;8.052;2023-10-19T08:40:17;11.87;;;6.37;;
31482;SDS011;18103;52.246;8.052;2023-10-19T08:42:44;9.97;;;6.77;;
31482;SDS011;18103;52.246;8.052;2023-10-19T08:45:11;8.77;;;6.00;;
31482;SDS011;18103;52.246;8.052;2023-10-19T08:47:48;11.40;;;6.50;;
31482;SDS011;18103;52.246;8.052;2023-10-19T08:50:32;12.53;;;6.67;;
31482;SDS011;18103;52.246;8.052;2023-10-19T08:53:05;12.60;;;6.53;;
31482;SDS011;18103;52.246;8.052;2023-10-19T08:55:36;9.50;;;5.77;;
31482;SDS011;18103;52.246;8.052;2023-10-19T08:58:04;12.80;;;6.50;;
31482;SDS011;18103;52.246;8.052;2023-10-19T09:00:42;10.70;;;6.77;;
31482;SDS011;18103;52.246;8.052;2023-10-19T09:03:12;10.60;;;6.57;;
31482;SDS011;18103;52.246;8.052;2023-10-19T09:05:39;12.40;;;7.07;;
31482;SDS011;18103;52.246;8.052;2023-10-19T09:08:07;11.33;;;7.10;;
31482;SDS011;18103;52.246;8.052;2023-10-19T09:10:35;10.97;;;6.63;;
31482;SDS011;18103;52.246;8.052;2023-10-19T09:13:03;10.83;;;6.87;;
31482;SDS011;18103;52.246;8.052;2023-10-19T09:15:33;13.73;;;7.83;;
31482;SDS011;18103;52.246;8.052;2023-10-19T09:18:20;12.53;;;7.60;;
31482;SDS011;18103;52.246;8.052;2023-10-19T09:20:49;10.90;;;6.53;;
31482;SDS011;18103;52.246;8.052;2023-10-19T09:23:22;10.80;;;6.73;;
31482;SDS011;18103;52.246;8.052;2023-10-19T09:25:49;15.67;;;6.97;;
31482;SDS011;18103;52.246;8.052;2023-10-19T09:28:20;15.93;;;7.10;;
31482;SDS011;18103;52.246;8.052;2023-10-19T09:30:47;10.13;;;6.60;;
31482;SDS011;18103;52.246;8.052;2023-10-19T09:33:17;12.20;;;7.27;;
31482;SDS011;18103;52.246;8.052;2023-10-19T09:35:49;10.77;;;6.50;;
31482;SDS011;18103;52.246;8.052;2023-10-19T09:38:17;15.93;;;7.27;;
31482;SDS011;18103;52.246;8.052;2023-10-19T09:40:47;10.60;;;6.70;;
31482;SDS011;18103;52.246;8.052;2023-10-19T09:43:16;16.37;;;7.10;;
31482;SDS011;18103;52.246;8.052;2023-10-19T09:46:08;15.67;;;7.70;;
31482;SDS011;18103;52.246;8.052;2023-10-19T09:48:55;15.27;;;8.57;;
31482;SDS011;18103;52.246;8.052;2023-10-19T09:51:20;17.53;;;8.70;;
31482;SDS011;18103;52.246;8.052;2023-10-19T09:54:00;11.43;;;7.73;;
31482;SDS011;18103;52.246;8.052;2023-10-19T09:56:30;18.93;;;8.87;;
31482;SDS011;18103;52.246;8.052;2023-10-19T09:59:06;17.40;;;8.27;;
31482;SDS011;18103;52.246;8.052;2023-10-19T10:04:35;18.10;;;7.97;;
31482;SDS011;18103;52.246;8.052;2023-10-19T10:07:01;14.50;;;7.20;;
31482;SDS011;18103;52.246;8.052;2023-10-19T10:09:29;13.37;;;7.27;;
31482;SDS011;18103;52.246;8.052;2023-10-19T10:12:15;13.33;;;7.90;;
31482;SDS011;18103;52.246;8.052;2023-10-19T10:15:03;12.80;;;8.00;;
31482;SDS011;18103;52.246;8.052;2023-10-19T10:17:39;13.07;;;7.40;;
31482;SDS011;18103;52.246;8.052;2023-10-19T10:22:42;15.47;;;8.80;;
31482;SDS011;18103;52.246;8.052;2023-10-19T10:25:30;15.87;;;8.20;;
31482;SDS011;18103;52.246;8.052;2023-10-19T10:27:56;14.40;;;8.70;;
31482;SDS011;18103;52.246;8.052;2023-10-19T10:30:23;16.90;;;8.00;;
31482;SDS011;18103;52.246;8.052;2023-10-19T10:32:53;11.57;;;8.00;;
31482;SDS011;18103;52.246;8.052;2023-10-19T10:38:05;15.53;;;8.53;;
31482;SDS011;18103;52.246;8.052;2023-10-19T10:40:49;18.47;;;8.67;;
31482;SDS011;18103;52.246;8.052;2023-10-19T10:43:18;15.47;;;8.00;;
31482;SDS011;18103;52.246;8.052;2023-10-19T10:45:44;13.57;;;7.73;;
31482;SDS011;18103;52.246;8.052;2023-10-19T10:48:16;16.53;;;8.97;;
31482;SDS011;18103;52.246;8.052;2023-10-19T10:50:44;17.00;;;8.70;;
31482;SDS011;18103;52.246;8.052;2023-10-19T10:53:11;18.00;;;9.17;;
31482;SDS011;18103;52.246;8.052;2023-10-19T10:55:37;17.07;;;8.70;;
31482;SDS011;18103;52.246;8.052;2023-10-19T10:58:04;14.67;;;8.30;;
31482;SDS011;18103;52.246;8.052;2023-10-19T11:00:29;19.27;;;9.77;;
31482;SDS011;18103;52.246;8.052;2023-10-19T11:03:00;19.13;;;8.63;;
31482;SDS011;18103;52.246;8.052;2023-10-19T11:05:26;16.40;;;9.50;;
31482;SDS011;18103;52.246;8.052;2023-10-19T11:10:38;16.30;;;9.53;;
31482;SDS011;18103;52.246;8.052;2023-10-19T11:13:07;14.77;;;9.77;;
31482;SDS011;18103;52.246;8.052;2023-10-19T11:15:39;18.00;;;9.50;;
31482;SDS011;18103;52.246;8.052;2023-10-19T11:21:08;15.53;;;9.17;;
31482;SDS011;18103;52.246;8.052;2023-10-19T11:23:45;16.17;;;9.47;;
31482;SDS011;18103;52.246;8.052;2023-10-19T11:26:13;16.13;;;8.70;;
31482;SDS011;18103;52.246;8.052;2023-10-19T11:28:40;17.43;;;10.37;;
31482;SDS011;18103;52.246;8.052;2023-10-19T11:31:19;16.83;;;9.50;;
31482;SDS011;18103;52.246;8.052;2023-10-19T11:33:49;17.27;;;9.67;;
31482;SDS011;18103;52.246;8.052;2023-10-19T11:36:16;14.20;;;9.10;;
31482;SDS011;18103;52.246;8.052;2023-10-19T11:38:45;14.27;;;9.37;;
31482;SDS011;18103;52.246;8.052;2023-10-19T11:41:14;16.27;;;9.33;;
31482;SDS011;18103;52.246;8.052;2023-10-19T11:43:42;18.63;;;9.27;;
31482;SDS011;18103;52.246;8.052;2023-10-19T11:46:09;13.43;;;7.90;;
31482;SDS011;18103;52.246;8.052;2023-10-19T11:48:36;12.43;;;8.20;;
31482;SDS011;18103;52.246;8.052;2023-10-19T11:51:02;16.53;;;8.53;;
31482;SDS011;18103;52.246;8.052;2023-10-19T11:53:32;14.97;;;8.97;;
31482;SDS011;18103;52.246;8.052;2023-10-19T11:56:07;16.20;;;8.57;;
31482;SDS011;18103;52.246;8.052;2023-10-19T11:58:34;14.47;;;8.77;;
31482;SDS011;18103;52.246;8.052;2023-10-19T12:01:06;10.10;;;8.00;;
31482;SDS011;18103;52.246;8.052;2023-10-19T12:03:37;14.37;;;9.83;;
31482;SDS011;18103;52.246;8.052;2023-10-19T12:06:11;17.53;;;9.60;;
31482;SDS011;18103;52.246;8.052;2023-10-19T12:08:43;12.90;;;8.13;;
31482;SDS011;18103;52.246;8.052;2023-10-19T12:11:11;13.33;;;7.70;;
31482;SDS011;18103;52.246;8.052;2023-10-19T12:13:44;13.80;;;8.27;;
31482;SDS011;18103;52.246;8.052;2023-10-19T12:16:11;18.20;;;8.90;;
31482;SDS011;18103;52.246;8.052;2023-10-19T12:18:49;12.17;;;8.67;;
31482;SDS011;18103;52.246;8.052;2023-10-19T12:21:14;13.80;;;7.90;;
31482;SDS011;18103;52.246;8.052;2023-10-19T12:23:40;10.77;;;7.53;;
31482;SDS011;18103;52.246;8.052;2023-10-19T12:26:06;12.73;;;7.20;;
31482;SDS011;18103;52.246;8.052;2023-10-19T12:28:39;12.47;;;7.97;;
31482;SDS011;18103;52.246;8.052;2023-10-19T12:31:06;14.17;;;7.87;;
31482;SDS011;18103;52.246;8.052;2023-10-19T12:33:39;14.27;;;8.00;;
31482;SDS011;18103;52.246;8.052;2023-10-19T12:36:07;12.57;;;7.00;;
31482;SDS011;18103;52.246;8.052;2023-10-19T12:38:48;14.43;;;6.50;;
31482;SDS011;18103;52.246;8.052;2023-10-19T12:41:16;17.40;;;8.73;;
31482;SDS011;18103;52.246;8.052;2023-10-19T12:43:42;16.20;;;8.07;;
31482;SDS011;18103;52.246;8.052;2023-10-19T12:46:08;17.27;;;8.60;;
31482;SDS011;18103;52.246;8.052;2023-10-19T12:48:34;13.83;;;8.50;;
31482;SDS011;18103;52.246;8.052;2023-10-19T12:51:02;15.37;;;7.93;;
31482;SDS011;18103;52.246;8.052;2023-10-19T12:53:32;13.27;;;7.53;;
31482;SDS011;18103;52.246;8.052;2023-10-19T12:56:03;13.53;;;7.43;;
31482;SDS011;18103;52.246;8.052;2023-10-19T12:58:30;11.63;;;7.27;;
31482;SDS011;18103;52.246;8.052;2023-10-19T13:00:57;11.00;;;7.73;;
31482;SDS011;18103;52.246;8.052;2023-10-19T13:03:23;15.03;;;7.67;;
31482;SDS011;18103;52.246;8.052;2023-10-19T13:05:52;11.60;;;7.77;;
31482;SDS011;18103;52.246;8.052;2023-10-19T13:08:18;14.03;;;8.50;;
31482;SDS011;18103;52.246;8.052;2023-10-19T13:10:45;13.03;;;7.63;;
31482;SDS011;18103;52.246;8.052;2023-10-19T13:13:13;14.13;;;7.67;;
31482;SDS011;18103;52.246;8.052;2023-10-19T13:15:43;11.73;;;7.40;;
31482;SDS011;18103;52.246;8.052;2023-10-19T13:18:13;11.07;;;7.40;;
31482;SDS011;18103;52.246;8.052;2023-10-19T13:20:44;14.77;;;8.20;;
31482;SDS011;18103;52.246;8.052;2023-10-19T13:23:13;14.40;;;7.93;;
31482;SDS011;18103;52.246;8.052;2023-10-19T13:25:42;12.50;;;7.53;;
31482;SDS011;18103;52.246;8.052;2023-10-19T13:28:23;17.00;;;7.67;;
31482;SDS011;18103;52.246;8.052;2023-10-19T13:30:52;15.63;;;7.27;;
31482;SDS011;18103;52.246;8.052;2023-10-19T13:33:21;15.90;;;8.63;;
31482;SDS011;18103;52.246;8.052;2023-10-19T13:35:49;13.63;;;7.77;;
31482;SDS011;18103;52.246;8.052;2023-10-19T13:38:18;14.97;;;7.50;;
31482;SDS011;18103;52.246;8.052;2023-10-19T13:40:49;11.60;;;6.97;;
31482;SDS011;18103;52.246;8.052;2023-10-19T13:43:15;16.07;;;7.67;;
31482;SDS011;18103;52.246;8.052;2023-10-19T13:45:46;11.27;;;6.50;;
31482;SDS011;18103;52.246;8.052;2023-10-19T13:48:18;13.80;;;5.83;;
31482;SDS011;18103;52.246;8.052;2023-10-19T13:50:45;15.50;;;6.87;;
31482;SDS011;18103;52.246;8.052;2023-10-19T13:53:25;9.07;;;5.60;;
31482;SDS011;18103;52.246;8.052;2023-10-19T13:55:51;12.67;;;6.83;;
31482;SDS011;18103;52.246;8.052;2023-10-19T13:58:17;12.30;;;6.13;;
31482;SDS011;18103;52.246;8.052;2023-10-19T14:00:44;10.93;;;6.63;;
31482;SDS011;18103;52.246;8.052;2023-10-19T14:03:14;10.40;;;6.40;;
31482;SDS011;18103;52.246;8.052;2023-10-19T14:05:43;10.57;;;7.03;;
31482;SDS011;18103;52.246;8.052;2023-10-19T14:08:18;12.03;;;5.80;;
31482;SDS011;18103;52.246;8.052;2023-10-19T14:10:45;10.80;;;6.50;;
31482;SDS011;18103;52.246;8.052;2023-10-19T14:13:11;10.77;;;6.93;;
31482;SDS011;18103;52.246;8.052;2023-10-19T14:15:39;13.20;;;8.13;;
31482;SDS011;18103;52.246;8.052;2023-10-19T14:18:05;10.40;;;6.77;;
31482;SDS011;18103;52.246;8.052;2023-10-19T14:20:33;9.07;;;6.23;;
31482;SDS011;18103;52.246;8.052;2023-10-19T14:23:03;18.00;;;8.13;;
31482;SDS011;18103;52.246;8.052;2023-10-19T14:25:29;9.80;;;6.40;;
31482;SDS011;18103;52.246;8.052;2023-10-19T14:28:00;12.33;;;6.47;;
31482;SDS011;18103;52.246;8.052;2023-10-19T14:30:26;11.07;;;6.27;;
31482;SDS011;18103;52.246;8.052;2023-10-19T14:32:56;15.73;;;7.23;;
31482;SDS011;18103;52.246;8.052;2023-10-19T14:35:22;12.43;;;7.20;;
31482;SDS011;18103;52.246;8.052;2023-10-19T14:37:50;13.70;;;7.67;;
31482;SDS011;18103;52.246;8.052;2023-10-19T14:40:20;12.53;;;7.80;;
31482;SDS011;18103;52.246;8.052;2023-10-19T14:42:53;12.07;;;7.63;;
31482;SDS011;18103;52.246;8.052;2023-10-19T14:45:19;10.97;;;7.43;;
31482;SDS011;18103;52.246;8.052;2023-10-19T14:47:48;9.97;;;7.17;;
31482;SDS011;18103;52.246;8.052;2023-10-19T14:50:16;12.20;;;7.23;;
31482;SDS011;18103;52.246;8.052;2023-10-19T14:52:44;11.27;;;7.30;;
31482;SDS011;18103;52.246;8.052;2023-10-19T14:55:10;11.43;;;7.20;;
31482;SDS011;18103;52.246;8.052;2023-10-19T14:57:37;15.60;;;7.07;;
31482;SDS011;18103;52.246;8.052;2023-10-19T15:00:04;10.03;;;7.40;;
31482;SDS011;18103;52.246;8.052;2023-10-19T15:02:45;16.13;;;8.07;;
31482;SDS011;18103;52.246;8.052;2023-10-19T15:05:14;12.50;;;7.37;;
31482;SDS011;18103;52.246;8.052;2023-10-19T15:07:44;13.80;;;7.60;;